METAR AND TAF INFORMATION

METAR FOR KMCO
ADDS - METARS form results

(0752 UTC 29 September 2022)
Data provider http://aviationweather.gov/metar/data/
 
METAR text: KMCO 290742Z AUTO 02024G31KT 5SM +RA BR FEW008 SCT015 OVC038 23/23 A2935 RMK AO2 PK WND 01038/0705 PRESFR P0059 T02280228
Conditions at: KMCO (ORLANDO , FL, US) observed 0742 UTC 29 September 2022
Temperature: 22.8°C (73°F)
Dewpoint: 22.8°C (73°F) [RH = 100%]
Pressure (altimeter): 29.35 inches Hg (994.0 mb)
Winds: from the NNE (20 degrees) at 28 MPH (24 knots; 12.3 m/s)
gusting to 36 MPH (31 knots; 15.9 m/s)
Visibility: 5 miles ( 8 km)
Ceiling: 3800 feet AGL
Clouds: few clouds at 800 feet AGL
scattered clouds at 1500 feet AGL
overcast cloud deck at 3800 feet AGL
Weather: +RA BR  (heavy rain, mist)

METAR text: KMCO 290721Z AUTO 02016G27KT 3SM +RA BR FEW008 OVC016 22/22 A2937 RMK AO2 PK WND 01038/0705 P0048 T02220222
Conditions at: KMCO (ORLANDO , FL, US) observed 0721 UTC 29 September 2022
Temperature: 22.2°C (72°F)
Dewpoint: 22.2°C (72°F) [RH = 100%]
Pressure (altimeter): 29.37 inches Hg (994.7 mb)
Winds: from the NNE (20 degrees) at 18 MPH (16 knots; 8.2 m/s)
gusting to 31 MPH (27 knots; 13.9 m/s)
Visibility: 3 miles ( 5 km)
Ceiling: 1600 feet AGL
Clouds: few clouds at 800 feet AGL
overcast cloud deck at 1600 feet AGL
Weather: +RA BR  (heavy rain, mist)

METAR text: KMCO 290716Z AUTO 03020G36KT 2SM +RA BR FEW008 OVC011 22/22 A2938 RMK AO2 PK WND 01038/0705 P0043 T02220222
Conditions at: KMCO (ORLANDO , FL, US) observed 0716 UTC 29 September 2022
Temperature: 22.2°C (72°F)
Dewpoint: 22.2°C (72°F) [RH = 100%]
Pressure (altimeter): 29.38 inches Hg (995.0 mb)
Winds: from the NNE (30 degrees) at 23 MPH (20 knots; 10.3 m/s)
gusting to 41 MPH (36 knots; 18.5 m/s)
Visibility: 2.00 miles (3.22 km)
Ceiling: 1100 feet AGL
Clouds: few clouds at 800 feet AGL
overcast cloud deck at 1100 feet AGL
Weather: +RA BR  (heavy rain, mist)

METAR text: KMCO 290712Z AUTO 01027G38KT 1 3/4SM +RA BR OVC011 22/22 A2937 RMK AO2 PK WND 01038/0705 P0036 T02220222
Conditions at: KMCO (ORLANDO , FL, US) observed 0712 UTC 29 September 2022
Temperature: 22.2°C (72°F)
Dewpoint: 22.2°C (72°F) [RH = 100%]
Pressure (altimeter): 29.37 inches Hg (994.7 mb)
Winds: from the N (10 degrees) at 31 MPH (27 knots; 13.9 m/s)
gusting to 44 MPH (38 knots; 19.5 m/s)
Visibility: 1.75 miles (2.82 km)
Ceiling: 1100 feet AGL
Clouds: overcast cloud deck at 1100 feet AGL
Weather: +RA BR  (heavy rain, mist)

METAR text: KMCO 290701Z AUTO 04022G38KT 2SM R35L/4000V6000FT +RA BR BKN007 OVC014 22/22 A2939 RMK AO2 PK WND 04036/0657 P0020 T02220222
Conditions at: KMCO (ORLANDO , FL, US) observed 0701 UTC 29 September 2022
Temperature: 22.2°C (72°F)
Dewpoint: 22.2°C (72°F) [RH = 100%]
Pressure (altimeter): 29.39 inches Hg (995.3 mb)
Winds: from the NE (40 degrees) at 25 MPH (22 knots; 11.3 m/s)
gusting to 44 MPH (38 knots; 19.5 m/s)
Visibility: 2.00 miles (3.22 km)
Ceiling: 700 feet AGL
Clouds: broken clouds at 700 feet AGL
overcast cloud deck at 1400 feet AGL
Weather: +RA BR  (heavy rain, mist)

METAR text: KMCO 290653Z AUTO 01025G38KT 1SM R35L/3000VP6000FT +RA BR VV007 22/22 A2938 RMK AO2 PK WND 01052/0603 SLP948 P0263 T02170217
Conditions at: KMCO (ORLANDO , FL, US) observed 0653 UTC 29 September 2022
Temperature: 21.7°C (71°F)
Dewpoint: 21.7°C (71°F) [RH = 100%]
Pressure (altimeter): 29.38 inches Hg (995.0 mb)
[Sea-level pressure:  994.8 mb]
Winds: from the N (10 degrees) at 29 MPH (25 knots; 12.9 m/s)
gusting to 44 MPH (38 knots; 19.5 m/s)
Visibility: 1.00 miles (1.61 km)
Ceiling: indefinite ceiling with vertical visibility of 700 feet AGL
Clouds: obscured sky
Weather: +RA BR  (heavy rain, mist)

Forecast for: KMCO (ORLANDO , FL, US)
Text: KMCO 290535Z 2906/3012 01035G50KT 2SM +RA BR BKN009 OVC019
Forecast period: 0600 to 1200 UTC 29 September 2022
Forecast type: FROM: standard forecast or significant change
Winds: from the N (10 degrees) at 40 MPH (35 knots; 18.0 m/s)
gusting to 57 MPH (50 knots; 25.7 m/s)
Visibility: 2.00 miles (3.22 km)
Ceiling: 900 feet AGL
Clouds: broken clouds at 900 feet AGL
overcast cloud deck at 1900 feet AGL
Weather: +RA BR  (heavy rain, mist)
Text: FM291200 36030G40KT 3SM SHRA BKN015
Forecast period: 1200 to 1800 UTC 29 September 2022
Forecast type: FROM: standard forecast or significant change
Winds: from the N (360 degrees) at 34 MPH (30 knots; 15.4 m/s)
gusting to 46 MPH (40 knots; 20.6 m/s)
Visibility: 3 miles (5 km)
Ceiling: 1500 feet AGL
Clouds: broken clouds at 1500 feet AGL
Weather: SHRA  (rain showers)
Text: FM291800 33030G40KT 5SM -SHRA OVC025
Forecast period: 1800 UTC 29 September 2022 to 0300 UTC 30 September 2022
Forecast type: FROM: standard forecast or significant change
Winds: from the NNW (330 degrees) at 34 MPH (30 knots; 15.4 m/s)
gusting to 46 MPH (40 knots; 20.6 m/s)
Visibility: 5 miles (8 km)
Ceiling: 2500 feet AGL
Clouds: overcast cloud deck at 2500 feet AGL
Weather: -SHRA  (light rain showers)
Text: FM300300 31020G35KT 6SM -SHRA BKN025
Forecast period: 0300 to 0600 UTC 30 September 2022
Forecast type: FROM: standard forecast or significant change
Winds: from the NW (310 degrees) at 23 MPH (20 knots; 10.3 m/s)
gusting to 40 MPH (35 knots; 18.0 m/s)
Visibility: 6 miles (10 km)
Ceiling: 2500 feet AGL
Clouds: broken clouds at 2500 feet AGL
Weather: -SHRA  (light rain showers)
Text: FM300600 27020G30KT P6SM OVC025 AMD NOT SKED
Forecast period: 0600 to 1200 UTC 30 September 2022
Forecast type: FROM: standard forecast or significant change
Winds: from the W (270 degrees) at 23 MPH (20 knots; 10.3 m/s)
gusting to 34 MPH (30 knots; 15.4 m/s)
Visibility: 6 or more miles (10+ km)
Ceiling: 2500 feet AGL
Clouds: overcast cloud deck at 2500 feet AGL
Weather: no significant weather forecast for this period

 

AIRPORT MAP

 

RUNWAY INFORMATION

Runway 17L Runway length 9000 ft Runway width 150 ft
Runway elevation 90 ft Runway displaced threshold 0 ft Runway heading 180
Runway 35R Runway length 9000 ft Runway width 150 ft
Runway elevation 90 ft Runway displaced threshold 0 ft Runway heading 360
Runway 17R Runway length 10000 ft Runway width 150 ft
Runway elevation 90 ft Runway displaced threshold 0 ft Runway heading 179
Runway 35L Runway length 10000 ft Runway width 150 ft
Runway elevation 87 ft Runway displaced threshold 0 ft Runway heading 359
Runway 18L Runway length 12005 ft Runway width 200 ft
Runway elevation 93 ft Runway displaced threshold 0 ft Runway heading 179
Runway 36R Runway length 12005 ft Runway width 200 ft
Runway elevation 91 ft Runway displaced threshold 0 ft Runway heading 359
Runway 18R Runway length 12004 ft Runway width 200 ft
Runway elevation 93 ft Runway displaced threshold 0 ft Runway heading 179
Runway 36L Runway length 12004 ft Runway width 200 ft
Runway elevation 91 ft Runway displaced threshold 0 ft Runway heading 359

 

AIRPORT FREQUENCIES

Type A/D Name APP/DEP Frequency 119.4 MHZ
Type ATIS Name ATIS Frequency 121.25 MHZ
Type CLD Name CLNC DEL Frequency 134.7 MHZ
Type GND Name GND Frequency 121.8 MHZ
Type OPS Name AR OPS Frequency 41.5 MHZ
Type RDO Name ST PETERSB Frequency 122.1 MHZ
Type RDO Name ST PETERSB Frequency 122.2 MHZ
Type TWR Name TWR Frequency 118.45 MHZ
Type UNIC Name UNICOM Frequency 122.95 MHZ

 

AIRPORT NEAR NAVIGATION AIDS